Latest Weather Observations for Hamilton

IDV60801

Issued at 7:52 am EDT Saturday 16 October 2021 (issued every 10 minutes, with the page automatically refreshed every 10 minutes)

About weather observations | Map of weather stations | Latest weather observations for VIC | Other Formats
Station Details ID: 090173 Name: HAMILTON AIRPORT Lat: -37.65 Lon: 142.06 Height: 241.1 m
Data from the previous 72 hours. | See also: Recent months at Hamilton
Date/Time
EDT
Temp
°C
App
Temp
°C
Dew
Point
°C
Rel
Hum
%
Delta-T
°C
Wind Press
QNH
hPa
Press
MSL
hPa
Rain since
9am
mm
Dir  Spd
km/h
Gust
km/h
Spd
kts
Gust
kts
16/07:30am 8.1 3.2 7.0 93 0.5 SW 22 32 12 17 1012.0 1011.9 1.6
16/07:23am 8.1 3.2 7.0 93 0.5 SW 22 30 12 16 1011.9 1011.8 1.6
16/07:00am 8.0 4.0 6.8 92 0.6 WSW 17 24 9 13 1011.5 1011.4 1.6
16/06:51am 8.0 4.0 6.6 91 0.7 WSW 17 22 9 12 1011.3 1011.2 1.6
16/06:35am 8.2 3.6 6.7 90 0.7 SW 20 28 11 15 1011.1 1011.0 1.6
16/06:31am 8.3 3.4 6.8 90 0.7 SW 22 30 12 16 1011.0 1010.9 1.6
16/06:30am 8.3 3.3 6.6 89 0.8 SW 22 30 12 16 1011.0 1010.9 1.6
16/06:00am 8.4 3.8 6.5 88 0.9 WSW 20 28 11 15 1010.5 1010.5 1.6
16/05:30am 8.5 3.5 6.5 87 0.9 WSW 22 30 12 16 1010.2 1010.2 1.6
16/05:00am 8.7 3.3 6.2 84 1.2 WSW 24 33 13 18 1010.0 1010.0 1.6
16/04:30am 8.9 3.4 5.8 81 1.4 SW 24 33 13 18 1009.9 1009.9 1.6
16/04:00am 8.9 4.1 5.8 81 1.4 SW 20 28 11 15 1009.8 1009.8 1.6
16/03:30am 8.9 3.7 5.5 79 1.6 WSW 22 28 12 15 1009.7 1009.7 1.6
16/03:00am 8.8 3.6 5.5 80 1.5 SW 22 32 12 17 1009.5 1009.5 1.6
16/02:30am 8.8 3.3 5.9 82 1.3 SW 24 35 13 19 1009.5 1009.5 1.6
16/02:00am 9.0 3.7 7.0 87 1.0 SW 24 32 13 17 1009.5 1009.5 1.6
16/01:30am 8.9 3.8 7.5 91 0.7 WSW 24 32 13 17 1009.5 1009.5 1.6
16/01:00am 8.7 4.3 7.6 93 0.5 WSW 20 28 11 15 1009.4 1009.4 1.6
16/12:56am 8.6 4.2 7.5 93 0.5 WSW 20 28 11 15 1009.4 1009.4 1.6
16/12:39am 8.7 3.2 7.5 92 0.6 WSW 26 35 14 19 1009.4 1009.4 1.6
16/12:30am 8.8 3.7 7.6 92 0.6 WSW 24 33 13 18 1009.3 1009.3 1.6
16/12:02am 8.7 3.6 7.6 93 0.5 WSW 24 35 13 19 1009.4 1009.4 1.6
16/12:00am 8.7 3.6 7.6 93 0.5 WSW 24 35 13 19 1009.4 1009.4 1.6
 
Date/Time
EDT
Temp
°C
App
Temp
°C
Dew
Point
°C
Rel
Hum
%
Delta-T
°C
Wind Press
QNH
hPa
Press
MSL
hPa
Rain since
9am
mm
Dir  Spd
km/h
Gust
km/h
Spd
kts
Gust
kts
15/11:58pm 8.7 3.2 7.6 93 0.5 WSW 26 35 14 19 1009.4 1009.4 1.6
15/11:30pm 8.6 3.8 7.5 93 0.5 SW 22 32 12 17 1009.5 1009.5 1.6
15/11:27pm 8.5 3.7 7.4 93 0.5 SW 22 32 12 17 1009.5 1009.5 1.6
15/11:00pm 8.7 2.8 7.5 92 0.6 SW 28 39 15 21 1009.3 1009.3 1.4
15/10:58pm 8.7 2.4 7.5 92 0.6 SW 30 39 16 21 1009.2 1009.2 1.4
15/10:30pm 8.8 2.6 7.7 93 0.5 WSW 30 41 16 22 1009.1 1009.1 1.4
15/10:00pm 8.9 2.4 8.0 94 0.4 WSW 32 46 17 25 1008.9 1008.8 1.4
15/09:30pm 8.9 2.4 8.0 94 0.4 WSW 32 39 17 21 1008.7 1008.6 1.4
15/09:06pm 8.8 3.0 7.9 94 0.4 SW 28 37 15 20 1008.6 1008.5 1.4
15/09:00pm 8.8 3.0 7.9 94 0.4 SW 28 41 15 22 1008.5 1008.4 1.4
15/08:41pm 8.9 2.7 7.8 93 0.5 WSW 30 41 16 22 1008.3 1008.2 1.2
15/08:30pm 8.9 3.0 7.7 92 0.6 WSW 28 37 15 20 1008.1 1008.0 1.2
15/08:00pm 8.9 3.0 7.5 91 0.7 WSW 28 39 15 21 1007.7 1007.6 1.2
15/07:35pm 9.1 2.8 7.2 88 0.9 WSW 30 43 16 23 1007.5 1007.4 1.2
15/07:30pm 9.2 2.9 7.3 88 0.9 WSW 30 41 16 22 1007.4 1007.3 1.2
15/07:00pm 9.6 3.3 7.2 85 1.2 WSW 30 41 16 22 1007.0 1006.9 1.2
15/06:30pm 9.7 4.3 7.8 88 0.9 WSW 26 35 14 19 1006.8 1006.7 1.2
15/06:28pm 9.6 4.1 7.7 88 0.9 SW 26 33 14 18 1006.8 1006.7 1.2
15/06:18pm 9.5 3.7 7.8 89 0.8 SW 28 37 15 20 1006.8 1006.7 1.2
15/06:02pm 9.4 3.1 7.3 87 1.0 WSW 30 50 16 27 1006.7 1006.6 1.2
15/06:00pm 9.5 3.2 7.4 87 1.0 WSW 30 43 16 23 1006.6 1006.5 1.2
15/05:57pm 9.7 3.0 7.5 86 1.1 WSW 32 46 17 25 1006.4 1006.4 1.0
15/05:30pm 10.4 3.9 8.3 87 1.0 SW 32 44 17 24 1006.0 1006.0 1.0
15/05:11pm 10.0 4.3 8.3 89 0.8 SW 28 35 15 19 1005.9 1005.9 1.0
15/05:00pm 9.5 2.6 7.4 87 1.0 SW 33 52 18 28 1006.1 1006.1 1.0
15/04:53pm 9.6 3.2 6.9 83 1.3 WSW 30 52 16 28 1006.1 1006.1 1.0
15/04:52pm 9.8 3.4 7.1 83 1.3 WSW 30 43 16 23 1006.1 1006.1 0.8
15/04:30pm 11.0 5.8 7.3 78 1.8 SW 24 35 13 19 1005.8 1005.8 0.6
15/04:00pm 10.7 4.7 7.2 79 1.7 SW 28 37 15 20 1005.8 1005.8 0.6
15/03:30pm 10.1 3.2 7.2 82 1.4 SW 33 44 18 24 1005.9 1005.9 0.6
15/03:00pm 10.9 4.5 7.0 77 1.9 SSW 30 39 16 21 1005.7 1005.7 0.6
15/02:30pm 12.0 5.3 8.1 77 1.9 SW 33 48 18 26 1005.8 1005.8 0.6
15/02:00pm 12.0 5.4 7.9 76 2.0 SW 32 44 17 24 1005.8 1005.8 0.6
15/01:30pm 10.8 4.6 7.7 81 1.5 SW 30 46 16 25 1005.9 1005.9 0.6
15/01:01pm 12.7 6.9 10.8 88 1.0 SW 32 43 17 23 1005.7 1005.7 0.6
15/01:00pm 12.4 6.5 10.3 87 1.1 SW 32 43 17 23 1005.7 1005.7 0.6
15/12:30pm 11.2 6.3 10.1 93 0.6 WSW 26 33 14 18 1005.7 1005.7 0.4
15/12:21pm 10.8 6.6 9.6 92 0.6 W 22 28 12 15 1005.7 1005.7 0.4
15/12:04pm 11.0 6.3 9.4 90 0.8 W 24 33 13 18 1005.7 1005.7 0.0
15/12:00pm 11.2 6.9 9.5 89 0.9 W 22 28 12 15 1005.8 1005.8 0.0
15/11:59am 11.3 7.1 9.6 89 0.9 W 22 28 12 15 1005.8 1005.8 0.0
15/11:42am 10.9 5.2 8.3 84 1.3 WSW 28 35 15 19 1006.0 1006.0 0.0
15/11:40am 11.1 5.3 8.1 82 1.5 WSW 28 35 15 19 1006.0 1006.0 0.0
15/11:30am 12.0 6.4 8.7 80 1.7 WSW 28 33 15 18 1005.9 1005.9 0.0
15/11:07am 11.6 6.3 8.3 80 1.6 WSW 26 33 14 18 1006.1 1006.1 0.0
15/11:00am 11.2 5.4 7.9 80 1.6 W 28 37 15 20 1006.1 1006.1 0.0
15/10:30am 11.1 6.2 10.0 93 0.6 SW 26 32 14 17 1006.4 1006.4 0.0
15/10:00am 10.6 6.5 10.1 97 0.3 WSW 22 33 12 18 1006.4 1006.4 0.0
15/09:37am 10.3 5.8 10.1 99 0.1 WSW 24 32 13 17 1006.4 1006.4 0.0
15/09:30am 10.0 5.5 9.9 99 0.1 WSW 24 30 13 16 1006.4 1006.4 0.0
15/09:00am 8.9 5.8 8.8 99 0.0 WSW 15 20 8 11 1006.6 1006.5 0.0
15/08:46am 8.7 5.9 8.6 99 0.0 WSW 13 17 7 9 1006.4 1006.4 0.0
15/08:30am 8.2 5.7 8.1 99 0.0 W 11 13 6 7 1006.4 1006.4 0.0
15/08:16am 7.8 4.8 7.7 99 0.0 WSW 13 13 7 7 1006.4 1006.4 0.0
15/08:00am 7.5 5.6 7.4 99 0.0 WSW 7 11 4 6 1006.3 1006.3 0.0
15/07:30am 7.0 4.6 6.9 99 0.0 W 9 11 5 6 1005.9 1005.9 0.0
15/07:00am 6.8 4.3 6.7 99 0.0 WSW 9 11 5 6 1005.7 1005.7 0.0
15/06:59am 6.8 4.3 6.7 99 0.0 WSW 9 11 5 6 1005.7 1005.7 0.0
15/06:54am 6.4 4.2 6.3 99 0.0 WSW 7 9 4 5 1005.7 1005.7 0.0
15/06:30am 6.4 4.4 6.3 99 0.0 WSW 6 7 3 4 1005.5 1005.4 0.0
15/06:00am 6.2 4.0 6.1 99 0.0 SW 7 9 4 5 1005.2 1005.1 0.0
15/05:30am 6.5 5.6 6.2 98 0.1 CALM 0 6 0 3 1004.9 1004.8 0.0
15/05:00am 6.5 3.9 6.2 98 0.1 SSW 9 11 5 6 1004.5 1004.4 0.0
15/04:30am 6.3 3.3 6.0 98 0.1 SSW 11 15 6 8 1004.2 1004.1 0.0
15/04:04am 5.2 2.3 4.9 98 0.1 SSW 9 13 5 7 1004.2 1004.1 0.0
15/04:00am 5.1 2.6 4.8 98 0.1 SSW 7 9 4 5 1004.1 1004.0 0.0
15/03:32am 4.4 1.4 4.0 97 0.2 SW 9 11 5 6 1004.2 1004.1 0.0
15/03:30am 4.5 1.5 4.1 97 0.2 SW 9 11 5 6 1004.2 1004.1 0.0
15/03:00am 4.7 3.4 4.3 97 0.2 CALM 0 0 0 0 1004.1 1004.0 0.0
15/02:50am 4.3 2.2 3.7 96 0.3 SSE 4 7 2 4 1004.1 1004.0 0.0
15/02:34am 5.6 2.4 5.2 97 0.2 S 11 13 6 7 1004.1 1004.0 0.0
15/02:30am 5.5 2.7 5.1 97 0.2 S 9 13 5 7 1004.0 1003.9 0.0
15/02:20am 6.0 3.3 5.6 97 0.2 S 9 11 5 6 1004.0 1003.9 0.0
15/02:00am 6.0 3.3 5.6 97 0.2 SSW 9 11 5 6 1004.2 1004.1 0.0
15/01:40am 6.1 4.0 5.7 97 0.2 S 6 9 3 5 1004.5 1004.4 0.0
15/01:30am 6.0 3.6 5.4 96 0.3 SSE 7 9 4 5 1004.5 1004.4 0.0
15/01:00am 5.3 2.0 4.7 96 0.3 SSW 11 13 6 7 1004.9 1004.8 0.0
15/12:30am 6.6 5.7 6.0 96 0.3 CALM 0 4 0 2 1005.1 1005.0 0.0
15/12:00am 6.4 4.1 5.8 96 0.3 ESE 7 9 4 5 1005.2 1005.1 0.0
 
Date/Time
EDT
Temp
°C
App
Temp
°C
Dew
Point
°C
Rel
Hum
%
Delta-T
°C
Wind Press
QNH
hPa
Press
MSL
hPa
Rain since
9am
mm
Dir  Spd
km/h
Gust
km/h
Spd
kts
Gust
kts
14/11:57pm 6.4 4.1 5.8 96 0.3 ESE 7 9 4 5 1005.2 1005.1 0.0
14/11:30pm 5.6 2.4 4.9 95 0.3 SE 11 13 6 7 1005.1 1005.0 0.0
14/11:00pm 6.0 2.8 5.1 94 0.4 SE 11 13 6 7 1005.3 1005.2 0.0
14/10:30pm 7.2 4.3 6.3 94 0.4 SSE 11 15 6 8 1005.5 1005.4 0.0
14/10:00pm 6.2 3.0 5.0 92 0.5 SE 11 13 6 7 1005.3 1005.2 0.0
14/09:30pm 6.9 4.2 5.5 91 0.6 SE 9 11 5 6 1005.0 1004.9 0.0
14/09:00pm 7.9 4.6 6.5 91 0.7 SSE 13 17 7 9 1004.7 1004.6 0.0
14/08:30pm 8.4 5.5 6.4 87 0.9 SE 11 15 6 8 1004.6 1004.5 0.0
14/08:00pm 9.1 5.7 6.0 81 1.4 SSE 13 15 7 8 1004.5 1004.4 0.0
14/07:30pm 11.0 9.3 6.0 71 2.4 NW 4 11 2 6 1004.2 1004.1 0.0
14/07:00pm 11.5 8.5 6.0 69 2.6 NNW 11 13 6 7 1003.7 1003.6 0.0
14/06:30pm 13.3 10.0 6.6 64 3.3 NNW 13 17 7 9 1003.4 1003.3 0.0
14/06:00pm 12.3 8.8 7.0 70 2.6 NW 15 19 8 10 1003.5 1003.4 0.0
14/05:30pm 12.3 7.8 7.0 70 2.6 NNW 20 24 11 13 1003.5 1003.4 0.0
14/05:00pm 12.7 7.9 5.8 63 3.3 NNW 20 28 11 15 1003.4 1003.3 0.0
14/04:30pm 13.5 8.8 6.1 61 3.6 NNW 20 32 11 17 1003.2 1003.1 0.0
14/04:00pm 13.6 9.2 5.0 56 4.1 N 17 24 9 13 1003.2 1003.1 0.0
14/03:30pm 13.8 10.7 5.7 58 3.9 NNW 11 19 6 10 1003.4 1003.3 0.0
14/03:00pm 13.9 9.9 5.0 55 4.2 N 15 22 8 12 1003.7 1003.6 0.0
14/02:30pm 14.3 11.4 6.4 59 3.9 NNW 11 19 6 10 1003.7 1003.6 0.0
14/02:00pm 14.6 10.4 5.7 55 4.3 NW 17 22 9 12 1003.8 1003.7 0.0
14/01:30pm 13.4 8.1 4.8 56 4.0 N 22 28 12 15 1004.0 1003.9 0.0
14/01:00pm 13.4 8.5 6.7 64 3.3 N 22 30 12 16 1004.3 1004.2 0.0
14/12:30pm 13.2 8.4 5.6 60 3.6 NNW 20 32 11 17 1004.5 1004.4 0.0
14/12:00pm 13.1 8.5 8.2 72 2.5 N 22 28 12 15 1004.8 1004.7 0.0
14/11:30am 12.5 8.1 9.0 79 1.8 N 22 28 12 15 1004.7 1004.6 0.0
14/11:18am 12.8 8.8 10.3 85 1.3 N 22 30 12 16 1004.7 1004.6 0.0
14/11:04am 12.2 9.0 11.3 94 0.5 NNW 19 26 10 14 1004.7 1004.6 0.0
14/11:03am 12.0 8.8 11.1 94 0.5 NNW 19 24 10 13 1004.7 1004.6 0.0
14/11:00am 11.9 8.7 11.1 95 0.4 NNW 19 24 10 13 1004.7 1004.6 0.0
14/10:50am 11.0 7.6 10.5 97 0.3 NNW 19 24 10 13 1004.8 1004.7 0.0
14/10:30am 10.7 8.0 10.5 99 0.1 NNW 15 20 8 11 1005.0 1004.9 0.0
14/10:00am 9.4 6.0 9.3 99 0.1 N 17 20 9 11 1004.9 1004.8 0.0
14/09:59am 9.8 6.5 9.7 99 0.1 N 17 20 9 11 1005.0 1004.9 0.0
14/09:36am 8.6 5.4 8.5 99 0.0 N 15 19 8 10 1004.8 1004.7 0.0
14/09:30am 8.8 5.7 8.7 99 0.0 N 15 19 8 10 1004.7 1004.6 0.0
14/09:17am 7.9 4.9 7.8 99 0.0 NNW 13 17 7 9 1004.6 1004.5 0.0
14/09:00am 6.9 4.5 6.8 99 0.0 N 9 11 5 6 1004.6 1004.5 6.6
14/08:30am 6.1 3.5 6.0 99 0.0 N 9 13 5 7 1004.6 1004.5 6.6
14/08:00am 5.0 1.4 4.9 99 0.0 N 13 15 7 8 1004.4 1004.3 6.6
14/07:30am 4.2 1.2 4.1 99 0.0 N 9 13 5 7 1004.3 1004.2 6.6
14/07:00am 3.7 0.9 3.4 98 0.1 N 7 9 4 5 1004.1 1004.0 6.6
14/06:30am 4.0 0.5 3.7 98 0.1 N 11 13 6 7 1003.8 1003.7 6.6
14/06:00am 4.5 1.9 4.2 98 0.1 N 7 9 4 5 1003.7 1003.6 6.6
14/05:30am 4.6 1.3 4.3 98 0.1 N 11 13 6 7 1003.9 1003.8 6.6
14/05:00am 5.4 3.2 5.1 98 0.1 N 6 7 3 4 1004.0 1003.9 6.4
14/04:30am 5.4 3.0 5.1 98 0.1 NNW 7 9 4 5 1004.3 1004.2 6.4
14/04:00am 5.2 2.9 4.9 98 0.1 N 6 7 3 4 1004.4 1004.3 6.4
14/03:30am 5.8 2.7 5.5 98 0.1 N 11 11 6 6 1004.6 1004.5 6.4
14/03:00am 6.3 2.9 6.0 98 0.1 N 13 13 7 7 1004.9 1004.8 6.4
14/02:53am 6.2 2.8 5.9 98 0.1 N 13 13 7 7 1005.1 1005.0 6.4
14/02:30am 6.6 4.4 6.2 97 0.2 NNW 7 7 4 4 1005.2 1005.1 6.4
14/02:23am 6.8 4.3 6.4 97 0.2 N 9 11 5 6 1005.1 1005.0 6.4
14/02:00am 7.0 4.5 6.6 97 0.2 N 9 11 5 6 1005.5 1005.4 6.4
14/01:30am 7.4 5.4 7.0 97 0.2 N 7 9 4 5 1005.4 1005.3 6.4
14/01:11am 7.2 5.1 6.8 97 0.2 NNE 7 9 4 5 1005.6 1005.6 6.4
14/01:00am 7.1 4.6 6.7 97 0.2 N 9 11 5 6 1005.8 1005.8 6.4
14/12:49am 7.2 4.8 6.8 97 0.2 N 9 11 5 6 1005.7 1005.7 6.4
14/12:30am 7.7 5.7 7.3 97 0.2 NNW 7 9 4 5 1005.7 1005.7 6.4
14/12:00am 7.7 5.0 7.3 97 0.2 N 11 11 6 6 1006.1 1006.1 6.4
 
Date/Time
EDT
Temp
°C
App
Temp
°C
Dew
Point
°C
Rel
Hum
%
Delta-T
°C
Wind Press
QNH
hPa
Press
MSL
hPa
Rain since
9am
mm
Dir  Spd
km/h
Gust
km/h
Spd
kts
Gust
kts
13/11:30pm 7.6 5.2 7.0 96 0.3 N 9 11 5 6 1006.1 1006.1 6.4
13/11:00pm 7.7 5.7 7.1 96 0.3 N 7 9 4 5 1006.3 1006.3 6.4
13/10:30pm 7.6 5.6 6.9 95 0.3 NE 7 7 4 4 1006.8 1006.7 6.4
13/10:00pm 7.9 5.9 7.1 95 0.4 NE 7 9 4 5 1007.0 1006.9 6.4
13/09:30pm 8.5 6.2 7.6 94 0.4 ENE 9 9 5 5 1006.9 1006.8 6.4
13/09:00pm 9.2 8.8 8.3 94 0.4 CALM 0 0 0 0 1006.7 1006.6 6.4
13/08:30pm 9.5 8.0 8.6 94 0.4 N 6 7 3 4 1006.6 1006.5 6.4
13/08:00pm 9.7 8.1 8.8 94 0.4 NNW 7 9 4 5 1006.2 1006.2 6.4
13/07:30pm 9.7 7.7 8.8 94 0.4 N 9 11 5 6 1005.7 1005.7 6.4
13/07:00pm 9.8 7.9 8.9 94 0.5 NE 9 11 5 6 1005.5 1005.4 6.4
13/06:30pm 9.9 8.5 9.0 94 0.4 N 6 11 3 6 1005.3 1005.2 6.4
13/06:00pm 10.1 9.6 9.2 94 0.5 N 2 6 1 3 1005.0 1004.9 6.2
13/05:34pm 10.1 8.2 9.2 94 0.5 WNW 9 13 5 7 1005.2 1005.1 5.6
13/05:30pm 10.1 7.9 9.2 94 0.5 WNW 11 17 6 9 1005.3 1005.2 5.6
13/05:21pm 10.2 7.5 9.1 93 0.6 WNW 13 17 7 9 1005.4 1005.3 5.4
13/05:16pm 10.2 7.5 9.1 93 0.6 WNW 13 17 7 9 1005.4 1005.3 5.2
13/05:00pm 10.4 7.0 9.3 93 0.6 WNW 17 24 9 13 1005.4 1005.3 4.8
13/04:40pm 10.7 8.1 9.5 92 0.6 WNW 13 17 7 9 1005.2 1005.1 3.8
13/04:30pm 10.9 8.4 9.7 92 0.6 WNW 13 17 7 9 1005.0 1004.9 3.4
13/04:00pm 11.3 8.4 9.7 90 0.8 WNW 15 20 8 11 1004.8 1004.7 2.6
13/03:30pm 11.1 7.3 9.0 87 1.1 WNW 19 26 10 14 1004.8 1004.7 1.6
13/03:00pm 12.4 6.9 7.7 73 2.3 WNW 26 37 14 20 1004.5 1004.4 0.0
13/02:30pm 15.8 11.8 8.1 60 3.9 N 19 28 10 15 1003.9 1003.8 0.0
13/02:00pm 16.8 11.7 7.7 55 4.7 NNE 24 37 13 20 1004.0 1003.9 0.0
13/01:30pm 18.5 12.7 9.6 56 4.8 N 30 48 16 26 1004.4 1004.3 0.0
13/01:00pm 17.9 11.8 9.8 59 4.3 N 32 44 17 24 1005.0 1004.9 0.0
13/12:30pm 17.4 11.5 10.3 63 3.8 N 32 43 17 23 1005.5 1005.4 0.0
13/12:00pm 17.7 11.3 10.6 63 3.9 N 35 44 19 24 1005.6 1005.6 0.0
13/11:30am 16.9 11.7 10.3 65 3.5 N 28 37 15 20 1005.8 1005.8 0.0
13/11:00am 16.9 12.3 11.0 68 3.2 N 26 35 14 19 1006.2 1006.2 0.0
13/10:30am 17.1 12.0 10.7 66 3.5 N 28 37 15 20 1006.6 1006.5 0.0
13/10:00am 15.8 9.6 10.1 69 3.0 NNE 33 46 18 25 1006.9 1006.8 0.0
13/09:36am 15.5 10.2 9.8 69 3.0 NNE 28 46 15 25 1006.8 1006.7 0.0
13/09:30am 15.4 9.8 10.2 71 2.8 N 30 41 16 22 1006.9 1006.8 0.0
13/09:00am 14.1 9.2 9.9 76 2.2 NNE 26 41 14 22 1007.1 1007.0 0.0
13/08:30am 13.4 8.0 9.5 77 2.0 NNE 28 35 15 19 1007.1 1007.0 0.0
13/08:00am 12.9 7.8 9.2 78 1.9 NNE 26 41 14 22 1007.2 1007.1 0.0

Other formats

Comma delimited format used in spreadsheet applications
http://www.bom.gov.au/fwo/IDV60801/IDV60801.94829.axf

JavaScript Object Notation format (JSON) in row-major order
http://www.bom.gov.au/fwo/IDV60801/IDV60801.94829.json

Data quality

Most of these data are generated automatically and are frequently updated. Quality checks on data are not normally performed. It is possible for incorrect values to appear. Refer to information at About Latest Weather Observations and please check the disclaimer before using these data.